Star Epsilon — V7NZ7 — position and weather

sailwx.info

Track history (hours):
 
Tides and Currents Weather Stations Pressure Air Temp Water Temp Dewpoint Dewpoint Depression Visibility Wind Speed Wind Dir Waves Ship Positions

Star Epsilon

Last reported at 2014-Aug-12 21:33 UTC. Time now 2014-Sep-01 13:53 UTC.
Position N 29°18' E 032°41'.
Warning: this ship's position is 19 days out of date.

Length 189 m; draft 11.8 m.

Type: Cargo ship. MMSI: 538003043.

Date/timePositionNaut miles runAvg speedWind from/ knotsBaromVisibWave heightAir tempDewpointWater temp
2014-Aug-12 21:33N 29°18' E 032°41'1414.0
2014-Aug-12 20:33N 29°31' E 032°34'108 5.4
2014-Aug-12 00:32N 31°18' E 032°21'5 3.9
2014-Aug-11 23:22N 31°22' E 032°19'0 0.0
2014-Aug-11 21:28N 31°22' E 032°19'0 0.0
2014-Aug-11 19:14N 31°22' E 032°19'0 0.0
2014-Aug-11 18:31N 31°22' E 032°19'0 0.2
2014-Aug-11 17:14N 31°22' E 032°19'4 4.9
2014-Aug-11 16:25N 31°25' E 032°15'910.2
2014-Aug-11 15:33N 31°33' E 032°11'3314.5
2014-Aug-11 13:19N 31°56' E 031°44'1113.9
2014-Aug-11 12:33N 32°02' E 031°34'1514.6
2014-Aug-11 11:33N 32°06' E 031°17'1514.6
2014-Aug-11 10:33N 32°10' E 031°01'1514.9
2014-Aug-11 09:33N 32°15' E 030°44'  
2014-Aug-08 23:14N 36°18' E 014°59'1014.1
2014-Aug-08 22:34N 36°21' E 014°47'1414.0
2014-Aug-08 21:33N 36°25' E 014°31'1413.9
2014-Aug-08 20:33N 36°29' E 014°14'1413.7
2014-Aug-08 19:33N 36°33' E 013°58'1313.5
2014-Aug-08 18:34N 36°37' E 013°42'1313.3
2014-Aug-08 17:34N 36°42' E 013°27'1413.5
2014-Aug-08 16:33N 36°45' E 013°10'1413.7
2014-Aug-08 15:34N 36°49' E 012°54'1513.5
2014-Aug-08 14:29N 36°53' E 012°37'1313.9
2014-Aug-08 13:31N 36°57' E 012°21'1713.9
2014-Aug-08 12:17N 37°02' E 012°00'1514.2
2014-Aug-08 11:13N 37°07' E 011°42'914.2
2014-Aug-08 10:33N 37°12' E 011°32'1414.3
2014-Aug-08 09:33N 37°19' E 011°16'1514.7
2014-Aug-08 08:33N 37°25' E 010°59'1514.5
2014-Aug-08 07:33N 37°28' E 010°41'1514.6
2014-Aug-08 06:33N 37°32' E 010°24'20614.4
2014-Aug-07 16:13N 37°14' E 006°05'1014.3
2014-Aug-07 15:31N 37°13' E 005°52'7513.8
2014-Aug-07 10:05N 37°07' E 004°18'814.1
2014-Aug-07 09:33N 37°06' E 004°09'1414.3
2014-Aug-07 08:33N 37°04' E 003°51'1414.0
2014-Aug-07 07:32N 37°02' E 003°34'1414.3
2014-Aug-07 06:33N 37°00' E 003°16'1514.7
2014-Aug-07 05:33N 36°58' E 002°58'1414.2
2014-Aug-07 04:34N 36°55' E 002°41'1414.1
2014-Aug-07 03:33N 36°53' E 002°23'1313.5
2014-Aug-07 02:33N 36°52' E 002°07'1413.7
2014-Aug-07 01:33N 36°50' E 001°50'1514.3
2014-Aug-07 00:29N 36°48' E 001°31'1414.9
2014-Aug-06 23:33N 36°45' E 001°13'1514.6
2014-Aug-06 22:32N 36°43' E 000°55'1414.1
2014-Aug-06 21:33N 36°41' E 000°38'1414.3
2014-Aug-06 20:33N 36°39' E 000°20'1514.4
2014-Aug-06 19:33N 36°37' E 000°03'1514.6
2014-Aug-06 18:32N 36°35' W 000°16'1413.8
2014-Aug-06 17:33N 36°33' W 000°32'1413.8
2014-Aug-06 16:33N 36°31' W 000°49'21814.3
2014-Aug-06 01:18N 35°59' W 005°17'  
Track history (hours):
 
Tides and Currents Weather Stations Pressure Air Temp Water Temp Dewpoint Dewpoint Depression Visibility Wind Speed Wind Dir Waves Ship Positions

Star Epsilon

Last reported at 2014-Aug-12 21:33 UTC. Time now 2014-Sep-01 13:53 UTC.
Position N 29°18' E 032°41'.
Warning: this ship's position is 19 days out of date.

Length 189 m; draft 11.8 m.

Type: Cargo ship. MMSI: 538003043.

Date/timePositionNaut miles runAvg speedWind from/ knotsBaromVisibWave heightAir tempDewpointWater temp
2014-Aug-12 21:33N 29°18' E 032°41'1414.0
2014-Aug-12 20:33N 29°31' E 032°34'108 5.4
2014-Aug-12 00:32N 31°18' E 032°21'5 3.9
2014-Aug-11 23:22N 31°22' E 032°19'0 0.0
2014-Aug-11 21:28N 31°22' E 032°19'0 0.0
2014-Aug-11 19:14N 31°22' E 032°19'0 0.0
2014-Aug-11 18:31N 31°22' E 032°19'0 0.2
2014-Aug-11 17:14N 31°22' E 032°19'4 4.9
2014-Aug-11 16:25N 31°25' E 032°15'910.2
2014-Aug-11 15:33N 31°33' E 032°11'3314.5
2014-Aug-11 13:19N 31°56' E 031°44'1113.9
2014-Aug-11 12:33N 32°02' E 031°34'1514.6
2014-Aug-11 11:33N 32°06' E 031°17'1514.6
2014-Aug-11 10:33N 32°10' E 031°01'1514.9
2014-Aug-11 09:33N 32°15' E 030°44'  
2014-Aug-08 23:14N 36°18' E 014°59'1014.1
2014-Aug-08 22:34N 36°21' E 014°47'1414.0
2014-Aug-08 21:33N 36°25' E 014°31'1413.9
2014-Aug-08 20:33N 36°29' E 014°14'1413.7
2014-Aug-08 19:33N 36°33' E 013°58'1313.5
2014-Aug-08 18:34N 36°37' E 013°42'1313.3
2014-Aug-08 17:34N 36°42' E 013°27'1413.5
2014-Aug-08 16:33N 36°45' E 013°10'1413.7
2014-Aug-08 15:34N 36°49' E 012°54'1513.5
2014-Aug-08 14:29N 36°53' E 012°37'1313.9
2014-Aug-08 13:31N 36°57' E 012°21'1713.9
2014-Aug-08 12:17N 37°02' E 012°00'1514.2
2014-Aug-08 11:13N 37°07' E 011°42'914.2
2014-Aug-08 10:33N 37°12' E 011°32'1414.3
2014-Aug-08 09:33N 37°19' E 011°16'1514.7
2014-Aug-08 08:33N 37°25' E 010°59'1514.5
2014-Aug-08 07:33N 37°28' E 010°41'1514.6
2014-Aug-08 06:33N 37°32' E 010°24'20614.4
2014-Aug-07 16:13N 37°14' E 006°05'1014.3
2014-Aug-07 15:31N 37°13' E 005°52'7513.8
2014-Aug-07 10:05N 37°07' E 004°18'814.1
2014-Aug-07 09:33N 37°06' E 004°09'1414.3
2014-Aug-07 08:33N 37°04' E 003°51'1414.0
2014-Aug-07 07:32N 37°02' E 003°34'1414.3
2014-Aug-07 06:33N 37°00' E 003°16'1514.7
2014-Aug-07 05:33N 36°58' E 002°58'1414.2
2014-Aug-07 04:34N 36°55' E 002°41'1414.1
2014-Aug-07 03:33N 36°53' E 002°23'1313.5
2014-Aug-07 02:33N 36°52' E 002°07'1413.7
2014-Aug-07 01:33N 36°50' E 001°50'1514.3
2014-Aug-07 00:29N 36°48' E 001°31'1414.9
2014-Aug-06 23:33N 36°45' E 001°13'1514.6
2014-Aug-06 22:32N 36°43' E 000°55'1414.1
2014-Aug-06 21:33N 36°41' E 000°38'1414.3
2014-Aug-06 20:33N 36°39' E 000°20'1514.4
2014-Aug-06 19:33N 36°37' E 000°03'1514.6
2014-Aug-06 18:32N 36°35' W 000°16'1413.8
2014-Aug-06 17:33N 36°33' W 000°32'1413.8
2014-Aug-06 16:33N 36°31' W 000°49'21814.3
2014-Aug-06 01:18N 35°59' W 005°17'  

Dump ship's entire track history